Hauptseite
METAR-TAF:

METAR-TAF

Flughäfen :

Flughafen Mykonos

Mykonos, Griechenland

Breite: 37-26-09N, Länge: 025-20-45E, Höhe: 123 m

Beobachtung

Neuester Wetterbericht von vor 9 Stunden und 31 Minuten, um 17:50 UTC
Wind 16 kt aus Nord
Temperatur 12°C
Luftfeuchtigkeit 67%
Luftdruck 1024 hPa
Sichtweite 10 km oder mehr
Aufgelockert bewölkt in der Höhe von 2000 ft

METAR: LGMK 051750Z 35016KT 9999 SCT020 12/06 Q1024

Zeit: 05:21 (03:21 UTC)

Prognose

Neuester Wetterbericht von vor 1 Stunde und 21 Minuten, um 02:00 UTC
Gültige Prognose vom 06 um 03 UTC bis 06 um 12 UTC
Wind 20 kt aus Nord
Sichtweite 10 km oder mehr
Aufgelockert bewölkt in der Höhe von 2000 ft

TAF: LGMK 060200Z 0603/0612 36020KT 9999 SCT020

Wetterbeobachtungen und Prognosen von mehr als 4000 Flughäfen (METAR und TAF Bericht).

Die verfügbaren Stationen werden durch gelbe und rote Markierungen auf der Karte dargestellt.

Führen Sie die Maus auf sie, um den Namen der Station zu sehen.

Darauf klicken, um die Beobachtung von Wetterbeobachtungen und Prognosen zu sehen.

Um die Karte zu ändern : klicken Sie auf den grünen Tasten mit einem schwarzen Kreuz Zum Vergrößern, auf den grünen Button mit einem Gedankenstrich zu verkleinern, oder auf die grünen Pfeile für benachbarte Karten.


METAR-TAF: